sensor_id;sensor_type;location;lat;lon;timestamp;pressure;altitude;pressure_sealevel;temperature;humidity
40490;BME280;26196;52.302;10.572;2022-08-25T00:00:54;101088.66;;;25.91;41.43
40490;BME280;26196;52.302;10.572;2022-08-25T00:04:55;101094.19;;;25.89;41.42
40490;BME280;26196;52.302;10.572;2022-08-25T00:08:55;101094.53;;;25.85;41.54
40490;BME280;26196;52.302;10.572;2022-08-25T00:12:59;101096.13;;;25.87;41.58
40490;BME280;26196;52.302;10.572;2022-08-25T00:17:00;101098.91;;;25.86;41.57
40490;BME280;26196;52.302;10.572;2022-08-25T00:21:00;101097.22;;;25.85;41.62
40490;BME280;26196;52.302;10.572;2022-08-25T00:25:01;101095.50;;;25.84;41.58
40490;BME280;26196;52.302;10.572;2022-08-25T00:29:02;101093.06;;;25.81;41.68
40490;BME280;26196;52.302;10.572;2022-08-25T00:33:02;101099.41;;;25.80;41.46
40490;BME280;26196;52.302;10.572;2022-08-25T00:37:06;101099.41;;;25.80;41.73
40490;BME280;26196;52.302;10.572;2022-08-25T00:41:09;101105.63;;;25.80;41.84
40490;BME280;26196;52.302;10.572;2022-08-25T00:45:10;101108.56;;;25.77;41.91
40490;BME280;26196;52.302;10.572;2022-08-25T00:49:29;101101.59;;;25.74;42.06
40490;BME280;26196;52.302;10.572;2022-08-25T00:53:31;101099.03;;;25.73;41.94
40490;BME280;26196;52.302;10.572;2022-08-25T00:57:40;101101.59;;;25.74;41.95
40490;BME280;26196;52.302;10.572;2022-08-25T01:01:42;101103.56;;;25.72;41.95
40490;BME280;26196;52.302;10.572;2022-08-25T01:05:42;101084.94;;;25.60;41.82
40490;BME280;26196;52.302;10.572;2022-08-25T01:09:45;101105.66;;;25.69;41.96
40490;BME280;26196;52.302;10.572;2022-08-25T01:13:51;101105.75;;;25.67;42.12
40490;BME280;26196;52.302;10.572;2022-08-25T01:17:54;101112.09;;;25.66;42.13
40490;BME280;26196;52.302;10.572;2022-08-25T01:21:56;101103.34;;;25.64;42.26
40490;BME280;26196;52.302;10.572;2022-08-25T01:26:04;101096.38;;;25.62;41.93
40490;BME280;26196;52.302;10.572;2022-08-25T01:30:07;101093.72;;;25.62;42.20
40490;BME280;26196;52.302;10.572;2022-08-25T01:34:10;101087.50;;;25.61;42.25
40490;BME280;26196;52.302;10.572;2022-08-25T01:38:11;101086.78;;;25.59;42.22
40490;BME280;26196;52.302;10.572;2022-08-25T01:46:17;101088.72;;;25.57;42.36
40490;BME280;26196;52.302;10.572;2022-08-25T01:50:18;101091.41;;;25.57;42.38
40490;BME280;26196;52.302;10.572;2022-08-25T01:54:19;101093.47;;;25.53;42.52
40490;BME280;26196;52.302;10.572;2022-08-25T01:58:24;101092.38;;;25.56;42.27
40490;BME280;26196;52.302;10.572;2022-08-25T02:02:24;101091.78;;;25.52;42.41
40490;BME280;26196;52.302;10.572;2022-08-25T02:06:28;101090.06;;;25.51;42.40
40490;BME280;26196;52.302;10.572;2022-08-25T02:10:28;101084.84;;;25.50;42.33
40490;BME280;26196;52.302;10.572;2022-08-25T02:14:29;101078.75;;;25.48;42.39
40490;BME280;26196;52.302;10.572;2022-08-25T02:18:29;101082.41;;;25.47;42.36
40490;BME280;26196;52.302;10.572;2022-08-25T02:22:30;101078.88;;;25.46;42.43
40490;BME280;26196;52.302;10.572;2022-08-25T02:26:30;101080.69;;;25.46;42.42
40490;BME280;26196;52.302;10.572;2022-08-25T02:30:31;101081.69;;;25.45;42.55
40490;BME280;26196;52.302;10.572;2022-08-25T02:34:31;101082.66;;;25.44;42.39
40490;BME280;26196;52.302;10.572;2022-08-25T02:38:33;101067.66;;;25.41;42.86
40490;BME280;26196;52.302;10.572;2022-08-25T02:42:34;101074.00;;;25.40;42.78
40490;BME280;26196;52.302;10.572;2022-08-25T02:46:35;101069.50;;;25.41;42.80
40490;BME280;26196;52.302;10.572;2022-08-25T02:50:36;101062.56;;;25.38;42.97
40490;BME280;26196;52.302;10.572;2022-08-25T02:54:36;101060.03;;;25.37;42.60
40490;BME280;26196;52.302;10.572;2022-08-25T02:58:38;101061.97;;;25.35;42.82
40490;BME280;26196;52.302;10.572;2022-08-25T03:02:39;101062.06;;;25.33;43.28
40490;BME280;26196;52.302;10.572;2022-08-25T03:06:40;101060.25;;;25.33;43.16
40490;BME280;26196;52.302;10.572;2022-08-25T03:10:41;101057.09;;;25.28;43.60
40490;BME280;26196;52.302;10.572;2022-08-25T03:14:41;101062.22;;;25.31;43.59
40490;BME280;26196;52.302;10.572;2022-08-25T03:18:42;101054.41;;;25.28;43.50
40490;BME280;26196;52.302;10.572;2022-08-25T03:22:42;101053.69;;;25.26;43.76
40490;BME280;26196;52.302;10.572;2022-08-25T03:26:43;101055.13;;;25.30;43.67
40490;BME280;26196;52.302;10.572;2022-08-25T03:30:56;101058.06;;;25.27;43.67
40490;BME280;26196;52.302;10.572;2022-08-25T03:34:56;101050.03;;;25.27;44.79
40490;BME280;26196;52.302;10.572;2022-08-25T03:38:57;101048.34;;;25.26;45.20
40490;BME280;26196;52.302;10.572;2022-08-25T03:42:58;101043.94;;;25.25;45.28
40490;BME280;26196;52.302;10.572;2022-08-25T03:46:58;101038.09;;;25.20;45.86
40490;BME280;26196;52.302;10.572;2022-08-25T03:50:59;101042.25;;;25.24;46.91
40490;BME280;26196;52.302;10.572;2022-08-25T03:55:00;101048.81;;;25.20;47.05
40490;BME280;26196;52.302;10.572;2022-08-25T03:59:03;101053.59;;;25.17;46.87
40490;BME280;26196;52.302;10.572;2022-08-25T04:03:04;101056.47;;;25.14;47.05
40490;BME280;26196;52.302;10.572;2022-08-25T04:07:04;101071.91;;;25.10;46.99
40490;BME280;26196;52.302;10.572;2022-08-25T04:11:14;101062.31;;;25.07;47.10
40490;BME280;26196;52.302;10.572;2022-08-25T04:15:15;101069.25;;;25.10;47.20
40490;BME280;26196;52.302;10.572;2022-08-25T04:19:15;101072.16;;;25.07;47.39
40490;BME280;26196;52.302;10.572;2022-08-25T04:23:16;101078.38;;;25.07;47.50
40490;BME280;26196;52.302;10.572;2022-08-25T04:27:16;101086.56;;;25.06;47.62
40490;BME280;26196;52.302;10.572;2022-08-25T04:31:18;101081.56;;;25.01;47.75
40490;BME280;26196;52.302;10.572;2022-08-25T04:35:19;101083.50;;;24.99;47.72
40490;BME280;26196;52.302;10.572;2022-08-25T04:39:21;101079.22;;;24.97;47.48
40490;BME280;26196;52.302;10.572;2022-08-25T04:43:22;101076.06;;;24.92;48.03
40490;BME280;26196;52.302;10.572;2022-08-25T04:47:22;101069.13;;;24.89;47.99
40490;BME280;26196;52.302;10.572;2022-08-25T04:51:33;101065.00;;;24.85;48.07
40490;BME280;26196;52.302;10.572;2022-08-25T04:55:45;101061.31;;;24.86;48.27
40490;BME280;26196;52.302;10.572;2022-08-25T04:59:46;101049.78;;;24.85;48.24
40490;BME280;26196;52.302;10.572;2022-08-25T05:03:52;101051.72;;;24.83;48.44
40490;BME280;26196;52.302;10.572;2022-08-25T05:07:53;101052.69;;;24.82;48.39
40490;BME280;26196;52.302;10.572;2022-08-25T05:11:53;101056.34;;;24.81;48.37
40490;BME280;26196;52.302;10.572;2022-08-25T05:15:55;101050.28;;;24.79;48.36
40490;BME280;26196;52.302;10.572;2022-08-25T05:19:56;101057.31;;;24.80;48.63
40490;BME280;26196;52.302;10.572;2022-08-25T05:23:58;101055.63;;;24.79;48.69
40490;BME280;26196;52.302;10.572;2022-08-25T05:27:59;101060.09;;;24.79;48.64
40490;BME280;26196;52.302;10.572;2022-08-25T05:31:59;101054.50;;;24.71;48.86
40490;BME280;26196;52.302;10.572;2022-08-25T05:36:00;101059.50;;;24.75;48.99
40490;BME280;26196;52.302;10.572;2022-08-25T05:40:01;101055.00;;;24.76;49.05
40490;BME280;26196;52.302;10.572;2022-08-25T05:44:01;101057.81;;;24.74;49.17
40490;BME280;26196;52.302;10.572;2022-08-25T05:48:02;101054.25;;;24.74;49.31
40490;BME280;26196;52.302;10.572;2022-08-25T05:52:03;101052.44;;;24.74;49.30
40490;BME280;26196;52.302;10.572;2022-08-25T05:56:03;101052.56;;;24.73;49.49
40490;BME280;26196;52.302;10.572;2022-08-25T06:00:05;101050.97;;;24.70;49.47
40490;BME280;26196;52.302;10.572;2022-08-25T06:04:06;101053.53;;;24.72;49.77
40490;BME280;26196;52.302;10.572;2022-08-25T06:08:07;101057.16;;;24.71;49.77
40490;BME280;26196;52.302;10.572;2022-08-25T06:12:07;101046.09;;;24.64;50.09
40490;BME280;26196;52.302;10.572;2022-08-25T06:16:08;101052.66;;;24.71;49.94
40490;BME280;26196;52.302;10.572;2022-08-25T06:20:12;101051.81;;;24.71;50.17
40490;BME280;26196;52.302;10.572;2022-08-25T06:24:12;101049.13;;;24.71;50.41
40490;BME280;26196;52.302;10.572;2022-08-25T06:28:13;101055.00;;;24.76;49.64
40490;BME280;26196;52.302;10.572;2022-08-25T06:37:10;101055.13;;;24.74;50.37
40490;BME280;26196;52.302;10.572;2022-08-25T06:41:11;101046.97;;;24.76;50.84
40490;BME280;26196;52.302;10.572;2022-08-25T06:45:12;101051.34;;;24.77;51.34
40490;BME280;26196;52.302;10.572;2022-08-25T06:49:12;101043.44;;;24.75;51.44
40490;BME280;26196;52.302;10.572;2022-08-25T06:53:13;101054.88;;;24.77;51.44
40490;BME280;26196;52.302;10.572;2022-08-25T06:57:13;101059.16;;;24.80;51.56
40490;BME280;26196;52.302;10.572;2022-08-25T07:01:20;101059.00;;;24.81;52.08
40490;BME280;26196;52.302;10.572;2022-08-25T07:05:22;101058.06;;;24.82;52.50
40490;BME280;26196;52.302;10.572;2022-08-25T07:09:22;101048.44;;;24.80;52.68
40490;BME280;26196;52.302;10.572;2022-08-25T07:13:23;101047.81;;;24.76;53.33
40490;BME280;26196;52.302;10.572;2022-08-25T07:17:23;101039.66;;;24.78;53.26
40490;BME280;26196;52.302;10.572;2022-08-25T07:21:25;101037.59;;;24.81;53.05
40490;BME280;26196;52.302;10.572;2022-08-25T07:25:25;101040.75;;;24.86;53.40
40490;BME280;26196;52.302;10.572;2022-08-25T07:29:27;101036.38;;;24.85;53.62
40490;BME280;26196;52.302;10.572;2022-08-25T07:33:29;101035.41;;;24.86;53.55
40490;BME280;26196;52.302;10.572;2022-08-25T07:37:29;101029.59;;;24.93;53.99
40490;BME280;26196;52.302;10.572;2022-08-25T07:41:31;101027.50;;;24.85;53.89
40490;BME280;26196;52.302;10.572;2022-08-25T07:45:33;101020.56;;;24.94;54.10
40490;BME280;26196;52.302;10.572;2022-08-25T07:49:34;101028.34;;;24.97;53.97
40490;BME280;26196;52.302;10.572;2022-08-25T07:53:35;101028.47;;;24.95;53.69
40490;BME280;26196;52.302;10.572;2022-08-25T07:57:38;101025.56;;;24.98;54.09
40490;BME280;26196;52.302;10.572;2022-08-25T08:01:39;101030.78;;;25.00;53.62
40490;BME280;26196;52.302;10.572;2022-08-25T08:05:39;101027.00;;;25.02;53.44
40490;BME280;26196;52.302;10.572;2022-08-25T08:09:40;101030.31;;;25.06;53.87
40490;BME280;26196;52.302;10.572;2022-08-25T08:13:40;101028.34;;;25.08;54.13
40490;BME280;26196;52.302;10.572;2022-08-25T08:17:41;101032.47;;;25.12;53.56
40490;BME280;26196;52.302;10.572;2022-08-25T08:21:42;101023.34;;;25.15;53.91
40490;BME280;26196;52.302;10.572;2022-08-25T08:25:42;101022.16;;;25.19;53.66
40490;BME280;26196;52.302;10.572;2022-08-25T08:29:43;101022.28;;;25.17;54.02
40490;BME280;26196;52.302;10.572;2022-08-25T08:33:45;101022.03;;;25.20;53.81
40490;BME280;26196;52.302;10.572;2022-08-25T08:37:46;101015.47;;;25.24;53.11
40490;BME280;26196;52.302;10.572;2022-08-25T08:42:12;101009.00;;;25.27;54.21
40490;BME280;26196;52.302;10.572;2022-08-25T08:46:19;101011.53;;;25.28;54.01
40490;BME280;26196;52.302;10.572;2022-08-25T08:50:41;101014.84;;;25.32;53.63
40490;BME280;26196;52.302;10.572;2022-08-25T08:54:45;101012.00;;;25.33;53.80
40490;BME280;26196;52.302;10.572;2022-08-25T08:58:58;100996.56;;;25.37;54.15
40490;BME280;26196;52.302;10.572;2022-08-25T09:03:07;100997.50;;;25.36;53.87
40490;BME280;26196;52.302;10.572;2022-08-25T09:07:13;100998.13;;;25.40;53.72
40490;BME280;26196;52.302;10.572;2022-08-25T09:28:49;100998.09;;;25.51;53.42
40490;BME280;26196;52.302;10.572;2022-08-25T09:32:52;100999.78;;;25.52;52.31
40490;BME280;26196;52.302;10.572;2022-08-25T09:37:01;100991.03;;;25.50;53.30
40490;BME280;26196;52.302;10.572;2022-08-25T09:41:02;100997.84;;;25.54;53.49
40490;BME280;26196;52.302;10.572;2022-08-25T09:45:03;100984.94;;;25.48;53.31
40490;BME280;26196;52.302;10.572;2022-08-25T09:49:11;100986.00;;;25.57;53.65
40490;BME280;26196;52.302;10.572;2022-08-25T09:53:13;100978.59;;;25.60;52.10
40490;BME280;26196;52.302;10.572;2022-08-25T10:01:31;100980.75;;;25.66;51.49
40490;BME280;26196;52.302;10.572;2022-08-25T10:05:33;100974.28;;;25.69;50.82
40490;BME280;26196;52.302;10.572;2022-08-25T10:09:42;100972.19;;;25.72;50.71
40490;BME280;26196;52.302;10.572;2022-08-25T10:13:48;100966.69;;;25.74;50.84
40490;BME280;26196;52.302;10.572;2022-08-25T10:17:50;100956.69;;;25.76;50.73
40490;BME280;26196;52.302;10.572;2022-08-25T10:22:07;100942.19;;;25.79;50.76
40490;BME280;26196;52.302;10.572;2022-08-25T10:26:14;100936.94;;;25.77;50.29
40490;BME280;26196;52.302;10.572;2022-08-25T10:30:23;100943.59;;;25.83;50.32
40490;BME280;26196;52.302;10.572;2022-08-25T10:39:00;100928.84;;;25.88;50.13
40490;BME280;26196;52.302;10.572;2022-08-25T10:43:06;100920.56;;;25.91;49.84
40490;BME280;26196;52.302;10.572;2022-08-25T10:51:43;100919.19;;;25.97;49.82
40490;BME280;26196;52.302;10.572;2022-08-25T11:04:13;100901.84;;;26.01;49.33
40490;BME280;26196;52.302;10.572;2022-08-25T11:13:02;100892.41;;;26.07;49.15
40490;BME280;26196;52.302;10.572;2022-08-25T11:17:05;100892.16;;;26.10;49.12
40490;BME280;26196;52.302;10.572;2022-08-25T11:21:14;100875.91;;;26.11;49.09
40490;BME280;26196;52.302;10.572;2022-08-25T11:25:22;100870.16;;;26.16;48.78
40490;BME280;26196;52.302;10.572;2022-08-25T11:29:29;100862.94;;;26.16;48.74
40490;BME280;26196;52.302;10.572;2022-08-25T11:33:31;100861.13;;;26.17;48.83
40490;BME280;26196;52.302;10.572;2022-08-25T11:37:33;100849.16;;;26.21;48.83
40490;BME280;26196;52.302;10.572;2022-08-25T11:41:49;100855.06;;;26.25;48.70
40490;BME280;26196;52.302;10.572;2022-08-25T11:50:22;100853.69;;;26.30;48.46
40490;BME280;26196;52.302;10.572;2022-08-25T11:54:27;100845.38;;;26.33;48.60
40490;BME280;26196;52.302;10.572;2022-08-25T11:58:38;100841.72;;;26.34;48.57
40490;BME280;26196;52.302;10.572;2022-08-25T12:02:46;100841.31;;;26.39;48.44
40490;BME280;26196;52.302;10.572;2022-08-25T12:11:06;100828.31;;;26.44;48.45
40490;BME280;26196;52.302;10.572;2022-08-25T12:19:30;100809.97;;;26.49;48.55
40490;BME280;26196;52.302;10.572;2022-08-25T12:24:12;100803.38;;;26.53;48.69
40490;BME280;26196;52.302;10.572;2022-08-25T12:28:27;100796.31;;;26.52;48.44
40490;BME280;26196;52.302;10.572;2022-08-25T12:37:14;100790.38;;;26.58;48.40
40490;BME280;26196;52.302;10.572;2022-08-25T12:41:18;100793.78;;;26.60;48.29
40490;BME280;26196;52.302;10.572;2022-08-25T12:49:32;100792.09;;;26.69;48.37
40490;BME280;26196;52.302;10.572;2022-08-25T12:53:37;100790.00;;;26.73;48.50
40490;BME280;26196;52.302;10.572;2022-08-25T12:57:51;100790.53;;;26.76;48.52
40490;BME280;26196;52.302;10.572;2022-08-25T13:02:08;100780.34;;;26.80;48.16
40490;BME280;26196;52.302;10.572;2022-08-25T13:11:06;100762.00;;;26.85;48.08
40490;BME280;26196;52.302;10.572;2022-08-25T13:15:13;100762.41;;;26.90;48.40
40490;BME280;26196;52.302;10.572;2022-08-25T13:19:17;100759.47;;;26.93;48.26
40490;BME280;26196;52.302;10.572;2022-08-25T13:23:23;100747.72;;;26.94;48.13
40490;BME280;26196;52.302;10.572;2022-08-25T13:27:26;100743.91;;;26.97;49.23
40490;BME280;26196;52.302;10.572;2022-08-25T13:31:29;100740.09;;;26.99;49.20
40490;BME280;26196;52.302;10.572;2022-08-25T13:35:30;100733.59;;;27.02;49.33
40490;BME280;26196;52.302;10.572;2022-08-25T13:39:34;100740.63;;;27.03;51.09
40490;BME280;26196;52.302;10.572;2022-08-25T13:43:36;100733.28;;;27.05;49.69
40490;BME280;26196;52.302;10.572;2022-08-25T13:47:39;100719.72;;;27.06;49.88
40490;BME280;26196;52.302;10.572;2022-08-25T13:51:51;100708.97;;;27.06;49.39
40490;BME280;26196;52.302;10.572;2022-08-25T13:55:56;100704.56;;;27.05;50.30
40490;BME280;26196;52.302;10.572;2022-08-25T14:00:05;100711.38;;;27.10;50.36
40490;BME280;26196;52.302;10.572;2022-08-25T14:08:39;100690.84;;;27.09;48.72
40490;BME280;26196;52.302;10.572;2022-08-25T14:12:45;100689.88;;;27.10;49.48
40490;BME280;26196;52.302;10.572;2022-08-25T14:16:58;100700.34;;;27.13;49.85
40490;BME280;26196;52.302;10.572;2022-08-25T14:20:59;100679.13;;;27.10;48.08
40490;BME280;26196;52.302;10.572;2022-08-25T14:25:06;100683.38;;;27.12;48.26
40490;BME280;26196;52.302;10.572;2022-08-25T14:29:07;100680.69;;;27.12;48.06
40490;BME280;26196;52.302;10.572;2022-08-25T14:33:09;100686.91;;;27.13;49.79
40490;BME280;26196;52.302;10.572;2022-08-25T14:37:15;100680.81;;;27.11;47.95
40490;BME280;26196;52.302;10.572;2022-08-25T14:41:16;100675.31;;;27.12;49.60
40490;BME280;26196;52.302;10.572;2022-08-25T14:45:17;100669.22;;;27.10;48.20
40490;BME280;26196;52.302;10.572;2022-08-25T14:49:24;100668.09;;;27.13;49.04
40490;BME280;26196;52.302;10.572;2022-08-25T14:53:28;100663.72;;;27.12;48.08
40490;BME280;26196;52.302;10.572;2022-08-25T14:57:29;100666.53;;;27.10;47.80
40490;BME280;26196;52.302;10.572;2022-08-25T15:01:29;100659.31;;;27.11;47.88
40490;BME280;26196;52.302;10.572;2022-08-25T15:05:30;100658.34;;;27.12;47.81
40490;BME280;26196;52.302;10.572;2022-08-25T15:09:31;100665.69;;;27.10;47.73
40490;BME280;26196;52.302;10.572;2022-08-25T15:13:31;100653.81;;;27.12;48.24
40490;BME280;26196;52.302;10.572;2022-08-25T15:17:32;100644.63;;;27.15;50.18
40490;BME280;26196;52.302;10.572;2022-08-25T15:21:33;100647.31;;;27.15;50.09
40490;BME280;26196;52.302;10.572;2022-08-25T15:25:35;100642.63;;;27.17;49.73
40490;BME280;26196;52.302;10.572;2022-08-25T15:29:35;100640.81;;;27.17;48.75
40490;BME280;26196;52.302;10.572;2022-08-25T15:33:39;100638.84;;;27.19;48.93
40490;BME280;26196;52.302;10.572;2022-08-25T15:37:40;100639.69;;;27.20;48.87
40490;BME280;26196;52.302;10.572;2022-08-25T15:41:41;100637.53;;;27.23;49.12
40490;BME280;26196;52.302;10.572;2022-08-25T15:45:41;100632.34;;;27.22;48.83
40490;BME280;26196;52.302;10.572;2022-08-25T15:49:42;100627.63;;;27.24;48.65
40490;BME280;26196;52.302;10.572;2022-08-25T15:53:42;100633.72;;;27.26;48.15
40490;BME280;26196;52.302;10.572;2022-08-25T15:57:43;100620.28;;;27.26;48.78
40490;BME280;26196;52.302;10.572;2022-08-25T16:01:44;100625.53;;;27.27;48.30
40490;BME280;26196;52.302;10.572;2022-08-25T16:05:44;100619.13;;;27.28;48.14
40490;BME280;26196;52.302;10.572;2022-08-25T16:09:45;100612.78;;;27.30;48.14
40490;BME280;26196;52.302;10.572;2022-08-25T16:13:46;100607.25;;;27.31;47.96
40490;BME280;26196;52.302;10.572;2022-08-25T16:17:47;100599.19;;;27.31;48.12
40490;BME280;26196;52.302;10.572;2022-08-25T16:21:47;100595.50;;;27.32;47.92
40490;BME280;26196;52.302;10.572;2022-08-25T16:25:48;100603.56;;;27.32;48.02
40490;BME280;26196;52.302;10.572;2022-08-25T16:29:48;100589.97;;;27.34;47.78
40490;BME280;26196;52.302;10.572;2022-08-25T16:33:50;100587.28;;;27.34;47.65
40490;BME280;26196;52.302;10.572;2022-08-25T16:37:50;100580.22;;;27.33;47.61
40490;BME280;26196;52.302;10.572;2022-08-25T16:41:51;100573.72;;;27.35;47.84
40490;BME280;26196;52.302;10.572;2022-08-25T16:46:00;100577.38;;;27.34;47.66
40490;BME280;26196;52.302;10.572;2022-08-25T16:50:01;100579.94;;;27.36;47.98
40490;BME280;26196;52.302;10.572;2022-08-25T16:54:03;100583.59;;;27.35;47.24
40490;BME280;26196;52.302;10.572;2022-08-25T16:58:22;100589.84;;;27.35;47.48
40490;BME280;26196;52.302;10.572;2022-08-25T17:02:22;100584.47;;;27.35;47.63
40490;BME280;26196;52.302;10.572;2022-08-25T17:06:25;100581.78;;;27.35;47.51
40490;BME280;26196;52.302;10.572;2022-08-25T17:10:26;100586.16;;;27.36;47.58
40490;BME280;26196;52.302;10.572;2022-08-25T17:14:27;100587.16;;;27.35;47.55
40490;BME280;26196;52.302;10.572;2022-08-25T17:18:28;100588.00;;;27.36;47.46
40490;BME280;26196;52.302;10.572;2022-08-25T17:22:28;100581.59;;;27.37;47.12
40490;BME280;26196;52.302;10.572;2022-08-25T17:26:30;100576.53;;;27.34;46.92
40490;BME280;26196;52.302;10.572;2022-08-25T17:30:30;100573.00;;;27.33;46.96
40490;BME280;26196;52.302;10.572;2022-08-25T17:34:31;100565.78;;;27.34;47.45
40490;BME280;26196;52.302;10.572;2022-08-25T17:38:31;100581.78;;;27.35;47.25
40490;BME280;26196;52.302;10.572;2022-08-25T17:42:32;100573.72;;;27.35;47.38
40490;BME280;26196;52.302;10.572;2022-08-25T17:46:33;100576.53;;;27.34;47.06
40490;BME280;26196;52.302;10.572;2022-08-25T17:50:34;100575.69;;;27.33;47.36
40490;BME280;26196;52.302;10.572;2022-08-25T17:54:35;100576.41;;;27.35;47.51
40490;BME280;26196;52.302;10.572;2022-08-25T17:58:36;100577.53;;;27.33;47.21
40490;BME280;26196;52.302;10.572;2022-08-25T18:02:36;100588.44;;;27.31;47.29
40490;BME280;26196;52.302;10.572;2022-08-25T18:06:37;100593.50;;;27.34;47.27
40490;BME280;26196;52.302;10.572;2022-08-25T18:10:38;100594.22;;;27.36;47.31
40490;BME280;26196;52.302;10.572;2022-08-25T18:14:38;100597.91;;;27.35;47.42
40490;BME280;26196;52.302;10.572;2022-08-25T18:18:40;100602.56;;;27.33;47.46
40490;BME280;26196;52.302;10.572;2022-08-25T18:22:41;100608.25;;;27.30;47.61
40490;BME280;26196;52.302;10.572;2022-08-25T18:26:41;100596.78;;;27.28;47.56
40490;BME280;26196;52.302;10.572;2022-08-25T18:30:42;100601.03;;;27.31;47.56
40490;BME280;26196;52.302;10.572;2022-08-25T18:34:42;100606.53;;;27.29;47.87
40490;BME280;26196;52.302;10.572;2022-08-25T18:38:43;100606.84;;;27.26;47.75
40490;BME280;26196;52.302;10.572;2022-08-25T18:43:04;100612.91;;;27.28;48.14
40490;BME280;26196;52.302;10.572;2022-08-25T18:47:05;100617.59;;;27.26;47.89
40490;BME280;26196;52.302;10.572;2022-08-25T18:51:06;100609.81;;;27.23;47.99
40490;BME280;26196;52.302;10.572;2022-08-25T18:55:07;100604.75;;;27.20;48.35
40490;BME280;26196;52.302;10.572;2022-08-25T18:59:08;100621.59;;;27.22;48.33
40490;BME280;26196;52.302;10.572;2022-08-25T19:03:11;100617.06;;;27.22;48.08
40490;BME280;26196;52.302;10.572;2022-08-25T19:07:11;100622.72;;;27.19;48.17
40490;BME280;26196;52.302;10.572;2022-08-25T19:11:13;100630.06;;;27.17;48.28
40490;BME280;26196;52.302;10.572;2022-08-25T19:15:14;100626.38;;;27.18;48.34
40490;BME280;26196;52.302;10.572;2022-08-25T19:19:16;100619.44;;;27.16;48.21
40490;BME280;26196;52.302;10.572;2022-08-25T19:23:17;100625.09;;;27.13;48.30
40490;BME280;26196;52.302;10.572;2022-08-25T19:27:18;100637.25;;;27.17;48.07
40490;BME280;26196;52.302;10.572;2022-08-25T19:31:20;100624.97;;;27.14;47.89
40490;BME280;26196;52.302;10.572;2022-08-25T19:35:41;100638.53;;;27.13;47.80
40490;BME280;26196;52.302;10.572;2022-08-25T19:39:44;100635.84;;;27.13;47.79
40490;BME280;26196;52.302;10.572;2022-08-25T19:43:48;100637.69;;;27.12;48.04
40490;BME280;26196;52.302;10.572;2022-08-25T19:47:48;100638.00;;;27.09;48.01
40490;BME280;26196;52.302;10.572;2022-08-25T19:51:51;100637.81;;;27.11;48.04
40490;BME280;26196;52.302;10.572;2022-08-25T19:55:51;100638.84;;;27.10;47.92
40490;BME280;26196;52.302;10.572;2022-08-25T19:59:53;100637.13;;;27.09;48.03
40490;BME280;26196;52.302;10.572;2022-08-25T20:03:53;100633.88;;;27.05;47.79
40490;BME280;26196;52.302;10.572;2022-08-25T20:07:55;100635.56;;;27.06;48.11
40490;BME280;26196;52.302;10.572;2022-08-25T20:11:55;100630.38;;;27.04;47.83
40490;BME280;26196;52.302;10.572;2022-08-25T20:15:58;100622.44;;;27.03;48.14
40490;BME280;26196;52.302;10.572;2022-08-25T20:20:00;100631.34;;;27.03;48.36
40490;BME280;26196;52.302;10.572;2022-08-25T20:24:01;100626.97;;;27.02;48.06
40490;BME280;26196;52.302;10.572;2022-08-25T20:28:20;100629.66;;;27.02;48.27
40490;BME280;26196;52.302;10.572;2022-08-25T20:32:21;100628.09;;;27.00;47.95
40490;BME280;26196;52.302;10.572;2022-08-25T20:36:21;100633.47;;;27.00;48.42
40490;BME280;26196;52.302;10.572;2022-08-25T20:40:24;100631.22;;;26.95;48.23
40490;BME280;26196;52.302;10.572;2022-08-25T20:44:24;100643.38;;;26.99;48.17
40490;BME280;26196;52.302;10.572;2022-08-25T20:48:26;100638.31;;;26.96;48.46
40490;BME280;26196;52.302;10.572;2022-08-25T20:52:27;100630.38;;;26.95;48.33
40490;BME280;26196;52.302;10.572;2022-08-25T20:56:27;100638.31;;;26.96;48.27
40490;BME280;26196;52.302;10.572;2022-08-25T21:00:31;100634.91;;;26.94;48.36
40490;BME280;26196;52.302;10.572;2022-08-25T21:04:31;100630.53;;;26.93;48.35
40490;BME280;26196;52.302;10.572;2022-08-25T21:08:32;100640.28;;;26.94;48.65
40490;BME280;26196;52.302;10.572;2022-08-25T21:12:32;100626.44;;;26.89;48.53
40490;BME280;26196;52.302;10.572;2022-08-25T21:16:37;100636.88;;;26.92;48.79
40490;BME280;26196;52.302;10.572;2022-08-25T21:20:38;100631.50;;;26.92;48.65
40490;BME280;26196;52.302;10.572;2022-08-25T21:24:38;100632.50;;;26.91;48.70
40490;BME280;26196;52.302;10.572;2022-08-25T21:28:38;100634.50;;;26.89;48.71
40490;BME280;26196;52.302;10.572;2022-08-25T21:32:39;100632.81;;;26.88;48.85
40490;BME280;26196;52.302;10.572;2022-08-25T21:36:40;100629.41;;;26.86;48.95
40490;BME280;26196;52.302;10.572;2022-08-25T21:40:40;100623.19;;;26.86;48.75
40490;BME280;26196;52.302;10.572;2022-08-25T21:44:42;100617.13;;;26.83;48.77
40490;BME280;26196;52.302;10.572;2022-08-25T21:48:43;100620.53;;;26.86;48.76
40490;BME280;26196;52.302;10.572;2022-08-25T21:52:45;100623.47;;;26.82;48.84
40490;BME280;26196;52.302;10.572;2022-08-25T21:56:55;100612.03;;;26.80;48.59
40490;BME280;26196;52.302;10.572;2022-08-25T22:01:09;100615.88;;;26.78;49.04
40490;BME280;26196;52.302;10.572;2022-08-25T22:05:10;100620.22;;;26.79;48.80
40490;BME280;26196;52.302;10.572;2022-08-25T22:09:11;100615.16;;;26.76;48.82
40490;BME280;26196;52.302;10.572;2022-08-25T22:13:12;100616.84;;;26.77;48.81
40490;BME280;26196;52.302;10.572;2022-08-25T22:17:12;100611.75;;;26.74;48.82